Time;durP1;ratioP1;P1;durP2;ratioP2;P2;SDS_P1;SDS_P2;PMS_P1;PMS_P2;Temp;Humidity;BMP_temperature;BMP_pressure;BME280_temperature;BME280_humidity;BME280_pressure;Samples;Min_cycle;Max_cycle;Signal;HPM_P1;HPM_P2
2021/05/29 00:02:15;;;;;;;26.85;13.40;;;;;;;14.39;65.80;92890.00;4919750;29;20077;-76
2021/05/29 00:04:40;;;;;;;22.70;14.20;;;;;;;14.37;65.69;92892.91;4952623;29;20046;-76
2021/05/29 00:07:06;;;;;;;20.25;12.85;;;;;;;14.37;65.40;92892.16;4935405;29;20051;-75
2021/05/29 00:09:32;;;;;;;22.88;13.32;;;;;;;14.36;65.30;92883.47;4942433;28;20058;-76
2021/05/29 00:11:59;;;;;;;30.40;15.95;;;;;;;14.35;66.42;92875.88;4938241;28;20059;-76
2021/05/29 00:14:25;;;;;;;26.20;13.70;;;;;;;14.35;66.55;92884.53;4986763;28;20050;-76
2021/05/29 00:16:51;;;;;;;36.70;16.50;;;;;;;14.31;66.51;92875.69;4971924;28;20102;-76
2021/05/29 00:19:16;;;;;;;25.80;14.95;;;;;;;14.31;67.02;92874.91;4971448;28;20034;-76
2021/05/29 00:21:42;;;;;;;25.17;14.90;;;;;;;14.27;66.96;92872.06;4954392;28;20058;-76
2021/05/29 00:24:08;;;;;;;25.73;14.43;;;;;;;14.24;66.78;92866.66;4972935;28;20049;-76
2021/05/29 00:26:34;;;;;;;30.83;17.33;;;;;;;14.21;67.26;92861.97;4957747;28;20420;-76
2021/05/29 00:29:00;;;;;;;36.08;19.25;;;;;;;14.17;67.76;92864.44;4975401;28;20035;-75
2021/05/29 00:31:26;;;;;;;33.38;18.67;;;;;;;14.10;68.04;92861.44;4974174;28;20127;-76
2021/05/29 00:33:51;;;;;;;37.13;19.67;;;;;;;14.07;68.21;92856.75;4975603;28;20486;-76
2021/05/29 00:36:17;;;;;;;39.20;20.67;;;;;;;14.01;68.60;92850.06;4975440;28;20043;-75
2021/05/29 00:38:48;;;;;;;33.38;21.80;;;;;;;13.97;68.93;92857.00;4957920;28;20119;-75
2021/05/29 00:41:15;;;;;;;42.25;23.02;;;;;;;13.91;68.89;92854.47;4975246;28;20371;-76
2021/05/29 00:43:41;;;;;;;42.53;22.77;;;;;;;13.87;69.05;92850.09;4958042;28;20039;-76
2021/05/29 00:46:07;;;;;;;39.67;23.77;;;;;;;13.83;69.73;92851.78;4975148;28;20451;-76
2021/05/29 00:48:34;;;;;;;45.90;23.70;;;;;;;13.79;69.47;92848.94;4958157;28;20430;-75
2021/05/29 00:51:00;;;;;;;44.78;23.15;;;;;;;13.73;70.36;92848.28;4957869;28;20056;-76
2021/05/29 00:53:31;;;;;;;44.45;24.52;;;;;;;13.68;70.67;92847.63;4975141;28;20046;-76
2021/05/29 00:55:58;;;;;;;45.88;24.73;;;;;;;13.61;71.09;92844.63;4974818;28;20046;-76
2021/05/29 00:58:26;;;;;;;41.10;24.25;;;;;;;13.56;71.35;92844.72;4974986;28;20033;-76
2021/05/29 01:00:52;;;;;;;42.45;23.65;;;;;;;13.52;71.69;92847.94;4974905;28;20069;-76
2021/05/29 01:03:18;;;;;;;41.85;24.00;;;;;;;13.51;71.69;92846.38;4957578;28;20130;-75
2021/05/29 01:05:45;;;;;;;49.00;25.98;;;;;;;13.50;71.71;92850.06;4989787;28;20452;-76
2021/05/29 01:08:11;;;;;;;47.42;26.38;;;;;;;13.50;71.29;92850.06;4989430;28;20093;-75
2021/05/29 01:10:38;;;;;;;46.90;26.27;;;;;;;13.52;71.44;92847.16;4954925;28;20061;-76
2021/05/29 01:13:06;;;;;;;43.45;25.77;;;;;;;13.51;71.97;92849.03;4957296;28;20094;-77
2021/05/29 01:15:46;;;;;;;44.78;25.48;;;;;;;13.51;71.92;92840.34;4941721;28;20074;-76
2021/05/29 01:18:15;;;;;;;43.75;25.52;;;;;;;13.53;71.70;92833.72;4974268;28;20595;-76
2021/05/29 01:20:43;;;;;;;48.38;26.23;;;;;;;13.55;71.68;92849.19;4989710;28;20039;-76
2021/05/29 01:23:09;;;;;;;47.65;26.70;;;;;;;13.55;72.01;92838.66;4956721;28;20051;-76
2021/05/29 01:25:38;;;;;;;38.15;24.50;;;;;;;13.53;71.70;92836.34;4974177;28;20046;-76
2021/05/29 01:28:11;;;;;;;45.58;25.15;;;;;;;13.54;72.05;92835.25;4972795;28;20097;-76
2021/05/29 01:30:46;;;;;;;44.95;25.70;;;;;;;13.55;72.75;92843.94;4974423;28;20047;-76
2021/05/29 01:33:15;;;;;;;44.83;24.52;;;;;;;13.56;72.07;92842.09;4974390;28;20058;-76
2021/05/29 01:35:42;;;;;;;42.17;24.60;;;;;;;13.56;72.20;92837.59;4973570;28;20035;-75
2021/05/29 01:38:08;;;;;;;45.15;24.75;;;;;;;13.56;72.19;92834.97;4956924;28;20034;-76
2021/05/29 01:40:33;;;;;;;39.95;23.73;;;;;;;13.60;72.14;92832.53;4972908;28;20413;-76
2021/05/29 01:42:59;;;;;;;42.80;22.70;;;;;;;13.62;71.71;92833.00;4957202;28;20049;-76
2021/05/29 01:45:29;;;;;;;38.78;21.35;;;;;;;13.65;71.17;92835.06;4974268;28;20149;-76
2021/05/29 01:47:55;;;;;;;37.20;19.42;;;;;;;13.68;70.27;92834.47;4974081;28;20047;-76
2021/05/29 01:50:21;;;;;;;28.75;18.42;;;;;;;13.70;69.68;92834.94;4974162;28;20039;-76
2021/05/29 01:52:53;;;;;;;37.88;19.38;;;;;;;13.71;69.74;92834.66;4957045;28;20050;-76
2021/05/29 01:55:21;;;;;;;30.58;19.88;;;;;;;13.72;69.96;92830.94;4974477;28;20054;-76
2021/05/29 01:57:47;;;;;;;36.25;19.40;;;;;;;13.71;70.42;92833.84;4974032;28;20035;-76
2021/05/29 02:00:14;;;;;;;34.58;19.50;;;;;;;13.70;70.54;92837.56;4956778;28;20532;-76
2021/05/29 02:02:41;;;;;;;37.95;19.38;;;;;;;13.64;70.73;92823.75;4973875;28;20434;-76
2021/05/29 02:05:16;;;;;;;35.60;17.88;;;;;;;13.64;70.84;92833.50;4988591;28;20520;-75
2021/05/29 02:07:43;;;;;;;30.20;17.45;;;;;;;13.61;70.62;92829.59;4973447;28;20067;-76
2021/05/29 02:10:10;;;;;;;27.05;15.85;;;;;;;13.60;70.82;92827.25;4954019;28;20133;-76
2021/05/29 02:12:48;;;;;;;28.35;16.55;;;;;;;13.59;70.63;92823.09;4973684;28;20047;-76
2021/05/29 02:15:19;;;;;;;33.17;17.55;;;;;;;13.54;70.76;92821.34;4973690;28;20042;-76
2021/05/29 02:17:47;;;;;;;24.37;15.63;;;;;;;13.52;71.06;92823.50;4972200;28;20046;-76
2021/05/29 02:20:13;;;;;;;23.92;14.98;;;;;;;13.47;71.04;92818.34;4955839;28;20410;-76
2021/05/29 02:22:39;;;;;;;26.73;15.35;;;;;;;13.42;70.79;92811.34;4956107;28;20103;-76
2021/05/29 02:25:06;;;;;;;28.00;15.90;;;;;;;13.40;71.05;92818.75;4973409;28;20042;-76
2021/05/29 02:27:32;;;;;;;31.80;17.63;;;;;;;13.37;70.86;92819.31;4973279;28;20039;-76
2021/05/29 02:29:58;;;;;;;33.17;18.40;;;;;;;13.34;71.03;92812.03;4973666;28;20038;-75
2021/05/29 02:32:24;;;;;;;28.27;16.73;;;;;;;13.32;70.85;92807.06;4955789;28;20119;-76
2021/05/29 02:34:50;;;;;;;28.02;16.52;;;;;;;13.28;71.31;92808.75;4973071;28;20473;-76
2021/05/29 02:37:15;;;;;;;32.80;19.02;;;;;;;13.26;71.38;92802.16;4973154;28;20113;-76
2021/05/29 02:39:41;;;;;;;32.10;18.48;;;;;;;13.23;71.14;92808.03;4939430;28;20045;-76
2021/05/29 02:42:07;;;;;;;33.50;17.42;;;;;;;13.22;71.42;92801.22;4939831;28;20043;-75
2021/05/29 02:44:33;;;;;;;30.25;18.25;;;;;;;13.18;71.79;92801.00;4973211;28;20058;-76
2021/05/29 02:46:59;;;;;;;30.08;18.05;;;;;;;13.16;72.09;92797.13;4972959;28;20043;-76
2021/05/29 02:49:25;;;;;;;33.10;18.23;;;;;;;13.13;72.66;92794.00;4972571;28;20053;-75
2021/05/29 02:51:50;;;;;;;32.25;18.70;;;;;;;13.10;72.79;92794.63;4955289;28;20047;-76
2021/05/29 02:54:16;;;;;;;32.35;19.33;;;;;;;13.09;73.34;92792.28;4939295;28;20063;-76
2021/05/29 02:56:42;;;;;;;38.63;20.50;;;;;;;13.05;72.92;92796.56;4987730;28;20131;-75
2021/05/29 02:59:07;;;;;;;35.30;19.48;;;;;;;13.03;72.71;92796.06;4955426;28;20043;-76
2021/05/29 03:01:33;;;;;;;32.55;18.80;;;;;;;13.01;72.85;92798.19;4987337;28;20030;-76
2021/05/29 03:03:59;;;;;;;30.85;18.67;;;;;;;12.97;73.05;92791.97;4972672;28;20058;-76
2021/05/29 03:06:25;;;;;;;37.30;19.65;;;;;;;12.95;73.25;92789.66;4987394;28;20038;-76
2021/05/29 03:08:51;;;;;;;32.90;20.27;;;;;;;12.93;73.32;92794.41;4936772;28;20057;-76
2021/05/29 03:11:17;;;;;;;32.83;18.63;;;;;;;12.91;73.48;92792.06;4955155;28;20402;-75
2021/05/29 03:13:43;;;;;;;37.80;20.02;;;;;;;12.89;73.66;92794.22;4939324;28;20528;-75
2021/05/29 03:16:09;;;;;;;34.63;19.35;;;;;;;12.88;74.03;92802.41;4972554;28;20133;-76
2021/05/29 03:18:34;;;;;;;35.85;19.83;;;;;;;12.88;73.93;92797.16;4971167;28;20505;-76
2021/05/29 03:21:00;;;;;;;31.42;19.00;;;;;;;12.87;73.88;92798.22;4939280;28;20045;-75
2021/05/29 03:23:27;;;;;;;33.38;20.25;;;;;;;12.88;74.03;92792.66;4972256;28;20133;-76
2021/05/29 03:25:53;;;;;;;39.72;21.85;;;;;;;12.90;74.24;92805.50;4987210;28;20035;-76
2021/05/29 03:28:19;;;;;;;39.67;20.88;;;;;;;12.90;73.76;92802.88;4954916;28;20065;-75
2021/05/29 03:30:45;;;;;;;38.58;21.73;;;;;;;12.90;73.73;92805.50;4939094;28;20082;-75
2021/05/29 03:33:13;;;;;;;39.80;22.05;;;;;;;12.90;73.91;92810.75;4972296;28;20043;-75
2021/05/29 03:35:40;;;;;;;40.80;22.98;;;;;;;12.89;74.48;92807.34;4972290;28;20417;-76
2021/05/29 03:38:06;;;;;;;36.10;21.63;;;;;;;12.91;74.33;92807.06;4972060;28;20525;-76
2021/05/29 03:40:32;;;;;;;41.90;23.23;;;;;;;12.93;73.87;92802.31;4954838;28;20066;-76
2021/05/29 03:42:57;;;;;;;40.15;21.75;;;;;;;12.93;74.29;92802.31;4954850;28;20046;-76
2021/05/29 03:45:23;;;;;;;40.45;21.83;;;;;;;12.94;73.97;92801.22;4972190;28;20038;-76
2021/05/29 03:47:50;;;;;;;40.53;22.23;;;;;;;12.94;74.16;92810.97;4972221;28;20055;-76
2021/05/29 03:50:20;;;;;;;43.15;22.70;;;;;;;12.97;74.79;92810.38;4972162;28;20050;-76
2021/05/29 03:52:46;;;;;;;34.83;20.83;;;;;;;12.98;74.77;92806.69;4972218;28;20145;-76
2021/05/29 03:55:13;;;;;;;37.72;20.20;;;;;;;12.99;74.30;92800.34;4954958;28;20125;-76
2021/05/29 03:57:39;;;;;;;38.92;20.30;;;;;;;12.99;74.33;92803.78;4986873;28;20130;-76
2021/05/29 04:00:08;;;;;;;38.13;20.15;;;;;;;12.99;74.06;92798.50;4957476;28;20537;-76
2021/05/29 04:02:38;;;;;;;35.80;20.02;;;;;;;13.01;73.90;92801.59;4975926;28;20046;-75
2021/05/29 04:05:05;;;;;;;41.38;22.58;;;;;;;13.04;74.08;92816.03;4975767;28;20367;-76
2021/05/29 04:07:31;;;;;;;40.28;22.40;;;;;;;13.05;73.91;92802.56;4975820;28;20118;-76
2021/05/29 04:09:57;;;;;;;37.50;22.63;;;;;;;13.08;73.65;92804.63;4952962;28;20651;-76
2021/05/29 04:12:22;;;;;;;35.85;22.00;;;;;;;13.09;73.90;92803.56;4972977;28;20042;-76
2021/05/29 04:14:49;;;;;;;38.22;22.65;;;;;;;13.11;73.69;92801.41;4990710;28;20516;-76
2021/05/29 04:17:15;;;;;;;43.95;23.15;;;;;;;13.13;74.02;92799.28;4973906;28;20125;-76
2021/05/29 04:19:40;;;;;;;41.60;22.15;;;;;;;13.19;75.01;92799.16;4990347;28;20518;-75
2021/05/29 04:22:06;;;;;;;39.45;21.30;;;;;;;13.21;74.90;92799.66;4975704;28;20043;-76
2021/05/29 04:24:32;;;;;;;36.33;20.60;;;;;;;13.20;74.70;92801.50;4975169;28;20445;-76
2021/05/29 04:26:58;;;;;;;37.22;20.15;;;;;;;13.24;74.67;92806.94;4957846;28;20047;-76
2021/05/29 04:29:23;;;;;;;33.50;20.58;;;;;;;13.26;74.37;92807.41;4990223;28;20069;-76
2021/05/29 04:31:49;;;;;;;35.75;19.63;;;;;;;13.29;74.09;92806.88;4974514;28;20041;-76
2021/05/29 04:34:15;;;;;;;31.38;18.77;;;;;;;13.30;73.97;92798.69;4959479;28;20055;-76
2021/05/29 04:36:40;;;;;;;35.03;19.40;;;;;;;13.33;73.78;92797.34;4974727;28;20508;-76
2021/05/29 04:39:06;;;;;;;34.13;19.00;;;;;;;13.36;73.52;92801.22;4990165;28;20077;-76
2021/05/29 04:41:32;;;;;;;39.55;19.73;;;;;;;13.40;73.74;92804.81;4989617;28;20038;-76
2021/05/29 04:43:57;;;;;;;35.95;19.58;;;;;;;13.46;74.05;92795.72;4984521;28;20081;-76
2021/05/29 04:46:23;;;;;;;35.13;18.55;;;;;;;13.49;73.81;92795.94;4980149;28;20046;-78
2021/05/29 04:48:49;;;;;;;27.73;17.77;;;;;;;13.54;73.42;92798.44;4968114;28;20128;-76
2021/05/29 04:51:15;;;;;;;32.50;17.65;;;;;;;13.62;73.45;92793.56;4954167;28;20057;-76
2021/05/29 04:53:47;;;;;;;31.80;17.55;;;;;;;13.69;73.36;92792.09;4971244;28;20050;-76
2021/05/29 04:56:14;;;;;;;34.93;18.27;;;;;;;13.75;73.42;92798.75;4985811;28;20050;-78
2021/05/29 04:58:40;;;;;;;33.83;17.25;;;;;;;13.84;73.01;92804.09;4986896;28;20353;-76
2021/05/29 05:01:07;;;;;;;30.77;16.98;;;;;;;13.91;72.51;92788.66;4972180;28;20230;-76
2021/05/29 05:03:34;;;;;;;29.05;16.45;;;;;;;14.02;72.23;92799.75;4972775;28;20050;-76
2021/05/29 05:06:00;;;;;;;30.90;16.30;;;;;;;14.11;72.09;92799.81;4973433;28;20050;-76
2021/05/29 05:08:26;;;;;;;31.60;15.20;;;;;;;14.18;71.67;92788.84;4981738;28;20056;-76
2021/05/29 05:10:52;;;;;;;34.42;16.42;;;;;;;14.27;70.86;92787.81;4953824;28;20035;-76
2021/05/29 05:13:18;;;;;;;27.30;17.13;;;;;;;14.40;70.12;92782.78;4973887;28;20125;-76
2021/05/29 05:15:45;;;;;;;29.38;17.98;;;;;;;14.53;69.49;92780.06;4968140;28;20527;-76
2021/05/29 05:18:10;;;;;;;32.42;17.40;;;;;;;14.69;69.25;92777.84;4956163;28;20037;-76
2021/05/29 05:20:37;;;;;;;33.28;17.40;;;;;;;14.89;68.54;92786.28;4940276;28;20589;-76
2021/05/29 05:23:04;;;;;;;29.15;17.67;;;;;;;15.08;68.01;92783.41;4972915;28;20082;-76
2021/05/29 05:25:31;;;;;;;33.03;17.25;;;;;;;15.29;67.55;92789.66;4956313;28;20386;-76
2021/05/29 05:27:57;;;;;;;30.90;17.05;;;;;;;15.53;66.56;92783.16;4988927;28;20385;-77
2021/05/29 05:30:23;;;;;;;34.05;14.60;;;;;;;15.69;65.14;92786.13;4971704;28;20042;-76
2021/05/29 05:32:50;;;;;;;25.65;15.68;;;;;;;15.68;63.57;92784.59;4978364;28;20047;-75
2021/05/29 05:35:16;;;;;;;26.83;15.07;;;;;;;15.57;65.07;92786.75;4956130;28;20037;-77
2021/05/29 05:37:43;;;;;;;29.02;14.65;;;;;;;15.56;64.96;92790.47;4956754;28;20045;-76
2021/05/29 05:40:10;;;;;;;25.88;13.82;;;;;;;15.22;66.50;92797.25;4999279;28;20057;-76
2021/05/29 05:42:36;;;;;;;36.05;14.32;;;;;;;15.41;65.90;92796.97;4975696;28;20062;-77
2021/05/29 05:45:05;;;;;;;25.48;14.77;;;;;;;15.42;65.65;92787.97;4985870;28;20054;-76
2021/05/29 05:47:30;;;;;;;27.63;14.40;;;;;;;15.04;67.69;92783.25;4980292;28;20043;-76
2021/05/29 05:49:56;;;;;;;20.17;13.40;;;;;;;15.78;64.99;92789.56;4973498;28;20050;-76
2021/05/29 05:52:23;;;;;;;25.08;13.02;;;;;;;16.50;63.08;92779.38;4982920;28;20034;-76
2021/05/29 05:54:49;;;;;;;27.15;13.23;;;;;;;17.53;59.90;92790.63;4961586;28;20051;-76
2021/05/29 05:57:15;;;;;;;19.50;11.18;;;;;;;18.91;55.75;92790.53;4975145;28;20082;-76
2021/05/29 05:59:41;;;;;;;25.15;13.05;;;;;;;19.89;49.95;92781.72;4957164;28;20054;-76
2021/05/29 06:02:07;;;;;;;25.75;12.35;;;;;;;19.68;48.38;92783.72;4974007;28;20034;-76
2021/05/29 06:04:33;;;;;;;19.33;10.93;;;;;;;19.68;47.15;92789.84;4973062;28;20050;-76
2021/05/29 06:06:59;;;;;;;21.38;9.65;;;;;;;19.62;49.04;92782.44;4939384;28;20397;-77
2021/05/29 06:09:25;;;;;;;17.33;9.15;;;;;;;21.37;45.02;92784.38;4954604;28;20051;-76
2021/05/29 06:11:51;;;;;;;13.38;7.93;;;;;;;22.59;41.96;92786.91;4952277;29;20051;-76
2021/05/29 06:19:47;;;;;;;22.67;11.05;;;;;;;21.65;41.23;92786.16;4944104;28;20049;-76
2021/05/29 06:22:12;;;;;;;15.35;9.07;;;;;;;20.49;46.08;92787.16;4954540;28;20053;-77
2021/05/29 06:24:38;;;;;;;17.90;9.50;;;;;;;20.52;46.10;92793.69;4955011;28;20042;-77
2021/05/29 06:27:04;;;;;;;16.63;9.25;;;;;;;22.42;42.35;92795.34;4935702;29;20036;-76
2021/05/29 06:29:30;;;;;;;18.67;9.73;;;;;;;23.54;39.38;92790.75;4936660;28;20441;-76
2021/05/29 06:31:56;;;;;;;17.83;9.68;;;;;;;24.82;36.05;92806.13;4951936;28;20058;-76
2021/05/29 06:34:21;;;;;;;18.55;9.13;;;;;;;24.92;35.31;92792.06;4937630;28;20039;-76
2021/05/29 06:36:48;;;;;;;19.20;9.45;;;;;;;23.40;36.85;92788.66;4970284;28;20097;-75
2021/05/29 06:39:13;;;;;;;17.63;8.27;;;;;;;24.75;35.33;92798.78;4957477;28;20047;-76
2021/05/29 06:41:41;;;;;;;25.77;8.98;;;;;;;23.18;39.19;92792.88;4956125;28;20564;-77
2021/05/29 06:44:08;;;;;;;18.42;9.25;;;;;;;21.67;46.49;92793.78;4962938;28;20043;-76
2021/05/29 06:46:34;;;;;;;15.52;8.73;;;;;;;21.23;47.09;92797.34;4954138;29;20134;-76
2021/05/29 06:49:01;;;;;;;16.25;9.23;;;;;;;20.39;48.77;92799.03;4941203;29;20479;-76
2021/05/29 06:51:35;;;;;;;19.55;10.98;;;;;;;18.95;52.12;92800.47;4937335;29;20573;-76
2021/05/29 06:54:05;;;;;;;19.20;10.15;;;;;;;18.21;53.27;92798.38;4937012;29;20047;-76
2021/05/29 06:59:14;;;;;;;23.55;10.82;;;;;;;18.20;56.79;92806.66;4954508;28;20097;-76
2021/05/29 07:01:40;;;;;;;20.33;9.70;;;;;;;18.13;54.57;92806.41;4973261;28;20050;-76
2021/05/29 07:04:06;;;;;;;23.20;9.80;;;;;;;18.46;51.61;92804.56;4955402;28;20132;-76
2021/05/29 07:06:31;;;;;;;20.30;8.85;;;;;;;18.41;52.59;92804.75;4964087;28;20043;-76
2021/05/29 07:08:58;;;;;;;17.23;8.90;;;;;;;18.03;53.38;92813.63;4953418;28;20110;-74
2021/05/29 07:11:24;;;;;;;13.57;7.18;;;;;;;18.43;52.55;92809.72;4976842;28;20042;-76
2021/05/29 07:13:49;;;;;;;16.77;9.43;;;;;;;18.16;56.97;92816.38;4974560;28;20052;-75
2021/05/29 07:16:16;;;;;;;22.38;10.27;;;;;;;17.98;56.65;92811.19;4974682;28;20038;-76
2021/05/29 07:18:46;;;;;;;23.58;10.25;;;;;;;17.96;56.41;92813.38;4974516;28;20057;-76
2021/05/29 07:21:17;;;;;;;15.55;9.00;;;;;;;18.55;56.37;92812.41;4985010;28;20116;-77
2021/05/29 07:23:44;;;;;;;16.35;9.25;;;;;;;18.75;52.21;92807.38;4980266;28;20421;-81
2021/05/29 07:26:10;;;;;;;15.02;7.80;;;;;;;18.76;49.03;92807.06;4963083;28;20041;-75
2021/05/29 07:28:35;;;;;;;16.83;9.30;;;;;;;18.10;55.75;92805.97;4991525;28;20042;-75
2021/05/29 07:31:02;;;;;;;15.38;8.00;;;;;;;18.31;51.77;92805.16;4990516;28;20042;-75
2021/05/29 07:33:28;;;;;;;21.15;8.45;;;;;;;18.02;55.31;92812.09;4972982;28;20042;-75
2021/05/29 07:35:54;;;;;;;17.42;8.10;;;;;;;17.97;55.22;92804.38;4990848;28;20030;-75
2021/05/29 07:41:42;;;;;;;16.00;8.27;;;;;;;19.32;52.66;92799.38;4974115;28;20048;-75
2021/05/29 07:44:08;;;;;;;17.63;7.47;;;;;;;18.66;52.49;92807.47;4991484;28;20155;-75
2021/05/29 07:46:35;;;;;;;15.20;7.50;;;;;;;18.38;54.45;92808.06;4990892;28;20247;-75
2021/05/29 07:49:01;;;;;;;14.77;7.45;;;;;;;19.06;52.29;92806.91;4991124;28;20034;-75
2021/05/29 07:51:27;;;;;;;16.17;7.82;;;;;;;19.30;50.53;92803.47;4991342;28;20108;-75
2021/05/29 07:53:52;;;;;;;15.98;7.60;;;;;;;18.77;55.55;92805.97;4991318;28;20046;-75
2021/05/29 07:56:20;;;;;;;16.63;7.18;;;;;;;18.24;52.60;92807.56;4957943;28;20042;-75
2021/05/29 07:58:48;;;;;;;14.43;6.20;;;;;;;18.02;54.17;92813.97;4991308;28;20042;-75
2021/05/29 08:01:16;;;;;;;14.48;7.25;;;;;;;18.63;52.95;92810.78;4991469;28;20030;-75
2021/05/29 08:03:42;;;;;;;13.20;6.03;;;;;;;18.17;51.31;92812.59;4991242;28;20050;-75
2021/05/29 08:06:19;;;;;;;12.30;6.25;;;;;;;18.62;50.66;92811.88;4973609;28;20034;-75
2021/05/29 08:08:46;;;;;;;10.50;5.75;;;;;;;18.54;51.86;92812.75;4985594;28;20059;-75
2021/05/29 08:11:21;;;;;;;12.52;6.32;;;;;;;18.83;52.82;92807.31;4980706;28;20042;-76
2021/05/29 08:13:52;;;;;;;9.38;4.88;;;;;;;18.88;50.11;92808.97;4973943;28;20042;-76
2021/05/29 08:16:20;;;;;;;12.65;5.40;;;;;;;18.52;50.60;92799.81;4973848;28;20504;-75
2021/05/29 08:18:46;;;;;;;15.73;4.82;;;;;;;18.06;52.35;92818.31;4991081;28;20038;-75
2021/05/29 08:21:12;;;;;;;12.57;5.47;;;;;;;17.92;51.35;92806.41;4991522;28;20578;-75
2021/05/29 08:23:40;;;;;;;12.38;5.72;;;;;;;18.10;52.01;92800.69;4992084;28;20038;-74
2021/05/29 08:26:06;;;;;;;17.77;6.32;;;;;;;18.18;51.40;92804.34;4991118;28;20520;-75
2021/05/29 08:28:32;;;;;;;12.40;5.80;;;;;;;18.12;52.55;92796.91;4957515;28;20053;-74
2021/05/29 08:30:58;;;;;;;11.55;5.82;;;;;;;18.09;51.89;92801.75;4973853;28;20046;-75
2021/05/29 08:33:23;;;;;;;14.00;6.07;;;;;;;18.35;50.69;92802.63;4973900;28;20042;-74
2021/05/29 08:35:49;;;;;;;9.90;5.10;;;;;;;18.35;50.98;92800.78;4991229;28;20056;-74
2021/05/29 08:38:15;;;;;;;14.00;5.72;;;;;;;18.25;52.05;92804.59;4973569;28;20042;-74
2021/05/29 08:40:41;;;;;;;11.25;5.43;;;;;;;18.14;51.25;92818.56;4978918;28;20561;-74
2021/05/29 08:43:07;;;;;;;15.70;7.75;;;;;;;18.38;50.35;92802.00;4954381;28;20174;-74
2021/05/29 08:45:33;;;;;;;10.80;6.70;;;;;;;18.27;52.15;92797.09;4956069;28;20070;-74
2021/05/29 08:47:59;;;;;;;15.00;5.53;;;;;;;18.94;50.14;92802.34;4975058;28;20038;-74
2021/05/29 08:50:25;;;;;;;8.98;4.22;;;;;;;18.41;52.42;92793.38;4957801;28;20043;-74
2021/05/29 08:52:51;;;;;;;10.00;4.68;;;;;;;18.71;50.76;92805.38;4975173;28;20062;-74
2021/05/29 08:55:18;;;;;;;12.27;5.10;;;;;;;18.87;49.53;92791.53;4957898;28;20600;-74
2021/05/29 08:57:46;;;;;;;8.48;4.47;;;;;;;18.73;49.88;92795.22;4957681;28;20091;-74
2021/05/29 09:00:16;;;;;;;11.57;4.95;;;;;;;18.35;50.09;92792.03;4974631;28;20405;-74
2021/05/29 09:03:20;;;;;;;10.30;5.93;;;;;;;18.37;50.97;92792.47;4975193;28;20070;-74
2021/05/29 09:05:50;;;;;;;9.70;5.43;;;;;;;18.43;52.35;92794.59;4880378;29;20105;-74
2021/05/29 09:08:17;;;;;;;16.52;5.97;;;;;;;18.48;50.75;92797.03;4895551;29;20229;-74
2021/05/29 09:10:48;;;;;;;10.57;5.53;;;;;;;18.85;50.36;92789.19;4935287;29;20074;-74
2021/05/29 09:13:17;;;;;;;14.98;6.60;;;;;;;18.95;50.39;92795.94;4938318;29;20121;-75
2021/05/29 09:15:50;;;;;;;18.35;9.18;;;;;;;19.02;49.85;92795.38;4955369;29;20531;-74
2021/05/29 09:18:48;;;;;;;12.75;6.72;;;;;;;18.35;51.95;92790.16;4937407;29;20662;-75
2021/05/29 09:21:26;;;;;;;13.18;5.95;;;;;;;18.63;50.72;92795.63;4938084;29;20051;-75
2021/05/29 09:23:54;;;;;;;12.55;7.10;;;;;;;18.95;51.85;92792.53;4955111;29;20047;-75
2021/05/29 09:26:22;;;;;;;22.15;7.50;;;;;;;19.22;51.49;92791.84;4955089;29;20031;-75
2021/05/29 09:28:49;;;;;;;10.90;6.63;;;;;;;19.14;49.53;92790.09;4937723;29;20054;-75
2021/05/29 09:31:14;;;;;;;17.15;8.98;;;;;;;18.95;49.44;92782.69;4955130;29;20045;-75
2021/05/29 09:33:43;;;;;;;13.93;7.80;;;;;;;18.77;51.36;92791.91;4954961;29;20118;-75
2021/05/29 09:36:11;;;;;;;14.10;7.15;;;;;;;18.35;53.36;92792.81;4937598;29;20086;-75
2021/05/29 09:38:43;;;;;;;16.52;8.40;;;;;;;18.67;51.90;92793.88;4937447;29;20074;-75
2021/05/29 09:41:21;;;;;;;15.90;7.83;;;;;;;19.19;50.54;92792.53;4954399;29;20072;-75
2021/05/29 09:43:55;;;;;;;18.45;9.80;;;;;;;19.25;50.42;92799.19;4954243;28;20078;-75
2021/05/29 09:46:22;;;;;;;14.60;8.93;;;;;;;19.44;49.83;92792.53;4956721;28;20052;-75
2021/05/29 09:48:56;;;;;;;20.55;8.20;;;;;;;19.74;49.90;92791.16;4956280;28;20126;-74
2021/05/29 09:51:23;;;;;;;16.25;7.30;;;;;;;19.39;49.96;92787.44;4956830;28;20050;-75
2021/05/29 09:53:50;;;;;;;20.83;9.30;;;;;;;19.13;51.25;92799.16;4974969;28;20094;-74
2021/05/29 09:56:25;;;;;;;16.67;7.07;;;;;;;19.03;51.35;92799.59;4957362;28;20190;-74
2021/05/29 09:59:10;;;;;;;17.92;8.32;;;;;;;19.01;51.02;92786.66;4941989;28;20050;-74
2021/05/29 10:01:41;;;;;;;16.95;7.60;;;;;;;19.53;50.33;92787.88;4975796;28;20069;-75
2021/05/29 10:04:08;;;;;;;15.57;8.70;;;;;;;19.43;50.22;92785.66;4947137;29;20073;-75
2021/05/29 10:06:34;;;;;;;11.18;6.68;;;;;;;19.75;51.16;92784.00;4937995;29;20031;-77
2021/05/29 10:09:00;;;;;;;16.52;7.85;;;;;;;19.23;50.38;92782.81;4958040;28;20057;-75
2021/05/29 10:11:28;;;;;;;15.50;8.10;;;;;;;18.76;51.24;92774.47;4972018;28;20089;-76
2021/05/29 10:13:54;;;;;;;14.27;8.20;;;;;;;18.65;52.15;92779.41;4956506;28;20055;-76
2021/05/29 10:16:21;;;;;;;15.38;9.20;;;;;;;18.63;51.59;92761.19;4972285;28;20552;-76
2021/05/29 10:18:54;;;;;;;15.10;8.18;;;;;;;19.02;51.24;92771.50;4960066;28;20058;-77
2021/05/29 10:21:21;;;;;;;20.73;9.13;;;;;;;18.50;52.14;92778.91;4977042;28;20515;-76
2021/05/29 10:23:48;;;;;;;19.08;9.45;;;;;;;19.22;50.04;92769.88;4955791;28;20053;-76
2021/05/29 10:26:17;;;;;;;20.15;9.73;;;;;;;19.37;51.59;92769.19;4963061;28;20042;-77
2021/05/29 10:28:46;;;;;;;23.92;9.70;;;;;;;18.87;51.03;92768.41;4966747;28;20480;-78
2021/05/29 10:31:13;;;;;;;19.83;10.75;;;;;;;18.44;51.81;92764.34;4974502;28;20047;-75
2021/05/29 10:33:44;;;;;;;18.67;9.70;;;;;;;18.98;52.40;92765.31;4991442;28;20436;-77
2021/05/29 10:36:38;;;;;;;17.67;9.50;;;;;;;19.46;52.42;92769.06;4980963;28;20050;-77
2021/05/29 10:39:21;;;;;;;20.75;9.45;;;;;;;18.67;52.30;92756.00;4987529;28;20119;-75
2021/05/29 10:41:58;;;;;;;17.45;9.80;;;;;;;18.45;53.93;92755.28;4956337;28;20133;-77
2021/05/29 10:44:42;;;;;;;17.20;10.13;;;;;;;19.08;52.75;92759.59;4957406;28;20342;-77
2021/05/29 10:47:15;;;;;;;18.42;8.85;;;;;;;19.89;51.34;92762.38;4936951;28;20556;-77
2021/05/29 10:49:47;;;;;;;14.95;8.18;;;;;;;19.88;49.61;92761.59;4955751;28;20042;-77
2021/05/29 10:52:32;;;;;;;20.92;9.10;;;;;;;19.47;51.08;92752.78;4963921;28;20070;-76
2021/05/29 10:55:09;;;;;;;16.90;9.57;;;;;;;19.05;51.63;92754.94;4975230;28;20053;-76
2021/05/29 10:58:01;;;;;;;20.90;10.32;;;;;;;18.71;51.25;92756.88;4984130;28;20111;-78
2021/05/29 11:00:50;;;;;;;15.48;8.50;;;;;;;19.30;51.23;92755.72;4972642;28;20055;-76
2021/05/29 11:03:18;;;;;;;17.20;8.07;;;;;;;19.21;50.46;92761.13;4955928;28;20059;-76
2021/05/29 11:05:48;;;;;;;22.35;10.20;;;;;;;19.11;50.63;92743.00;4971375;28;20035;-77
2021/05/29 11:10:45;;;;;;;20.67;9.63;;;;;;;19.44;50.33;92758.00;4949306;28;20058;-78
2021/05/29 11:13:11;;;;;;;14.63;8.43;;;;;;;19.55;51.39;92751.13;4961291;28;20043;-77
2021/05/29 11:15:54;;;;;;;17.92;9.10;;;;;;;19.44;50.90;92750.06;4935144;28;20051;-78
2021/05/29 11:18:19;;;;;;;18.98;9.10;;;;;;;19.02;51.57;92745.75;4958999;28;20039;-78
2021/05/29 11:21:03;;;;;;;18.42;9.05;;;;;;;19.09;51.42;92745.19;4948185;29;20050;-77
2021/05/29 11:23:29;;;;;;;16.33;9.63;;;;;;;18.93;51.19;92737.91;4951845;28;20039;-77
2021/05/29 11:25:57;;;;;;;16.48;8.63;;;;;;;19.26;51.71;92741.56;4935906;29;20046;-77
2021/05/29 11:28:23;;;;;;;15.75;9.52;;;;;;;18.87;51.51;92738.47;4954169;29;20043;-76
2021/05/29 11:30:49;;;;;;;16.33;8.25;;;;;;;19.24;51.46;92746.41;4935392;29;20043;-77
2021/05/29 11:33:16;;;;;;;16.10;9.15;;;;;;;19.37;50.86;92739.22;4952956;29;20039;-76
2021/05/29 11:35:50;;;;;;;18.67;9.38;;;;;;;19.22;50.94;92738.78;4957351;28;20047;-77
2021/05/29 11:38:24;;;;;;;15.48;9.00;;;;;;;19.22;50.69;92735.38;4934075;29;20406;-77
2021/05/29 11:40:58;;;;;;;21.58;9.63;;;;;;;18.97;51.03;92739.91;4955325;29;20134;-77